»·PEaware :: GGN7322 KCVG-CYYZ

GGN7322 :: KCVG-CYYZ

FLIGHT INFORMATION

Flight Status: Arrived
Operator: Unknown
More flights by this operator :: More flights under this callsign
Pilot: Will D. (10979)
Aircraft: CANADAIR CL-600 CRJ-200
(CRJ2)
More flights by this aircraft type
Origin: KCVG Cincinnati/Northern Ky Intl
United States
Destination: CYYZ Toronto/Pearson Intl
Canada
More flights between these airports :: More routes between these airports
Route: BNGLE4 DJB QWERI NUBER2
File this flight plan on PilotEdge
Remarks:
Altitude:
(Current/Filed)
35,000ft
Speed:
(Current/Filed)
426kts
Departed: 15-Apr-18 05:26 PM
Arrived: 15-Apr-18 06:39 PM
Distance/Time
Traveled:
359nm/1:13
Distance/Time
To Go:
Arrived

Flight Plot

Page will automatically refresh every two minutes.

Flight plan parsing failed; only flown route is shown


Map Options




Map Legend


Flown Route
Filed Route
Departure Airport
Arrival Airport
Navaid (VOR, NDB)
Fix

Horizontal Profiles

Position Reports

Time Latitude Longitude Heading Altitude Ground
Speed
15-Apr-18 17:12 39.052750 -84.653471 359 875ft 0kts
15-Apr-18 17:13 39.052750 -84.653471 359 875ft 0kts
15-Apr-18 17:14 39.052750 -84.653471 359 875ft 0kts
15-Apr-18 17:15 39.052750 -84.653471 359 875ft 0kts
15-Apr-18 17:16 39.052715 -84.653471 360 875ft 2kts
15-Apr-18 17:17 39.052240 -84.653570 42 876ft 2kts
15-Apr-18 17:18 39.052133 -84.653891 90 876ft 0kts
15-Apr-18 17:19 39.052133 -84.653891 90 876ft 0kts
15-Apr-18 17:20 39.052133 -84.653891 90 876ft 0kts
15-Apr-18 17:21 39.052136 -84.651857 89 879ft 5kts
15-Apr-18 17:22 39.051814 -84.648558 149 887ft 9kts
15-Apr-18 17:23 39.048306 -84.649137 211 887ft 10kts
15-Apr-18 17:24 39.047775 -84.653098 182 879ft 9kts
15-Apr-18 17:25 39.046288 -84.660690 269 860ft 125kts
15-Apr-18 17:26 39.046618 -84.731457 269 5854ft 237kts
15-Apr-18 17:27 39.046156 -84.820137 272 12679ft 262kts
15-Apr-18 17:28 39.093632 -84.886724 355 17178ft 352kts
15-Apr-18 17:29 39.195274 -84.865406 25 22471ft 413kts
15-Apr-18 17:30 39.283449 -84.760695 44 27360ft 455kts
15-Apr-18 17:31 39.373476 -84.642494 41 32419ft 477kts
15-Apr-18 17:32 39.465935 -84.520675 40 34776ft 473kts
15-Apr-18 17:33 39.556239 -84.403410 33 34775ft 459kts
15-Apr-18 17:34 39.651503 -84.305594 33 34748ft 456kts
15-Apr-18 17:35 39.736270 -84.218686 33 34751ft 464kts
15-Apr-18 17:36 39.835827 -84.114591 39 34745ft 468kts
15-Apr-18 17:37 39.929879 -83.998163 39 34747ft 468kts
15-Apr-18 17:38 40.024161 -83.880529 37 34749ft 488kts
15-Apr-18 17:39 40.122304 -83.757763 43 34755ft 531kts
15-Apr-18 17:40 40.229805 -83.622056 43 34752ft 544kts
15-Apr-18 17:41 40.338283 -83.484816 43 34753ft 545kts
15-Apr-18 17:42 40.446368 -83.347428 44 34781ft 545kts
15-Apr-18 17:43 40.549285 -83.216008 44 34776ft 545kts
15-Apr-18 17:44 40.657191 -83.077613 47 34836ft 545kts
15-Apr-18 17:45 40.764986 -82.938641 47 34760ft 549kts
15-Apr-18 17:46 40.873399 -82.798212 48 34890ft 547kts
15-Apr-18 17:47 40.981435 -82.657581 48 34852ft 547kts
15-Apr-18 17:48 41.089341 -82.516446 48 34820ft 547kts
15-Apr-18 17:49 41.192092 -82.381426 48 34768ft 547kts
15-Apr-18 17:50 41.298870 -82.240431 49 34749ft 546kts
15-Apr-18 17:51 41.434802 -82.156150 0 34724ft 556kts
15-Apr-18 17:52 41.586956 -82.178414 355 34670ft 558kts
15-Apr-18 17:53 41.740078 -82.189454 355 33086ft 553kts
15-Apr-18 17:54 41.892668 -82.200513 355 31317ft 537kts
15-Apr-18 17:55 42.037202 -82.211052 355 29831ft 509kts
15-Apr-18 17:56 42.173700 -82.221026 354 28349ft 489kts
15-Apr-18 17:57 42.306442 -82.230787 354 26816ft 472kts
15-Apr-18 17:58 42.434942 -82.240281 354 25300ft 458kts
15-Apr-18 17:59 42.559881 -82.249525 354 23797ft 446kts
15-Apr-18 18:00 42.678776 -82.235088 28 22618ft 428kts
15-Apr-18 18:01 42.755229 -82.122645 57 21547ft 402kts
15-Apr-18 18:02 42.845281 -82.048602 359 20490ft 402kts
15-Apr-18 18:03 42.958059 -82.058856 353 19434ft 411kts
15-Apr-18 18:04 43.070063 -82.073534 353 18362ft 392kts
15-Apr-18 18:05 43.174420 -82.087390 353 17246ft 368kts
15-Apr-18 18:06 43.275636 -82.100870 354 16146ft 373kts
15-Apr-18 18:07 43.379185 -82.114690 354 15261ft 375kts
15-Apr-18 18:08 43.471726 -82.077745 58 14461ft 356kts
15-Apr-18 18:09 43.483454 -81.950631 94 13684ft 338kts
15-Apr-18 18:10 43.482319 -81.826496 95 12977ft 292kts
15-Apr-18 18:11 43.481146 -81.723374 95 12417ft 265kts
15-Apr-18 18:12 43.479871 -81.618413 95 12229ft 276kts
15-Apr-18 18:13 43.478520 -81.513403 95 11846ft 271kts
15-Apr-18 18:14 43.477103 -81.410322 95 11436ft 267kts
15-Apr-18 18:15 43.475630 -81.309150 96 11037ft 268kts
15-Apr-18 18:16 43.474065 -81.207617 97 10639ft 266kts
15-Apr-18 18:17 43.472366 -81.105326 97 10241ft 267kts
15-Apr-18 18:18 43.470640 -81.005103 97 9842ft 259kts
15-Apr-18 18:19 43.468823 -80.906325 97 9335ft 257kts
15-Apr-18 18:20 43.466693 -80.808543 91 8904ft 259kts
15-Apr-18 18:21 43.464951 -80.708707 91 8304ft 258kts
15-Apr-18 18:22 43.462932 -80.609822 91 7705ft 260kts
15-Apr-18 18:23 43.460771 -80.509784 91 7111ft 264kts
15-Apr-18 18:24 43.458682 -80.416698 91 6547ft 231kts
15-Apr-18 18:25 43.463103 -80.334395 81 6058ft 214kts
15-Apr-18 18:26 43.472126 -80.255146 80 5608ft 218kts
15-Apr-18 18:27 43.481600 -80.173657 81 5115ft 216kts
15-Apr-18 18:28 43.491115 -80.090856 82 4616ft 204kts
15-Apr-18 18:29 43.499411 -80.018325 82 4251ft 190kts
15-Apr-18 18:30 43.507562 -79.946709 82 3952ft 190kts
15-Apr-18 18:31 43.526994 -79.878828 58 3670ft 204kts
15-Apr-18 18:32 43.564990 -79.824303 46 3522ft 172kts
15-Apr-18 18:33 43.591086 -79.784561 60 2807ft 121kts
15-Apr-18 18:34 43.614992 -79.749901 50 1834ft 129kts
15-Apr-18 18:35 43.639391 -79.714800 52 1387ft 118kts
15-Apr-18 18:36 43.662582 -79.681063 54 929ft 118kts
15-Apr-18 18:37 43.685686 -79.647600 55 544ft 87kts
15-Apr-18 18:38 43.691264 -79.637418 136 540ft 14kts
15-Apr-18 18:39 43.689087 -79.633125 135 550ft 13kts
15-Apr-18 18:40 43.685974 -79.628896 140 555ft 17kts
15-Apr-18 18:41 43.685949 -79.624959 55 561ft 17kts
15-Apr-18 18:42 43.685512 -79.624213 144 561ft 0kts
15-Apr-18 18:43 43.685512 -79.624213 144 561ft 0kts

Navigation Log

Ident Type
Flight plan parsing failed, navigation log unavailable